KGED/GED METAR and TAF weather

Enter ICAO airport designator
Station Type Date Time Source
KGED METAR 2022/06/28 14:54 UTC NOAA

KGED 281454Z AUTO 02010KT 10SM CLR 24/13 A3019 RMK AO2 SLP221 T02440128 51011


Station Type Date Time Source
KGED Decoded METAR 2022/06/28 14:54 UTC NOAA

GEORGETOWN SUSSEX CO AIRPORT , DE, United States (KGED) 38-41N 075-22W 19M
Jun 28, 2022 - 10:54 AM EDT / 2022.06.28 1454 UTC
Wind: from the NNE (020 degrees) at 12 MPH (10 KT):0
Visibility: 10 mile(s):0
Sky conditions: clear
Temperature: 75.9 F (24.4 C)
Dew Point: 55.0 F (12.8 C)
Relative Humidity: 48%
Pressure (altimeter): 30.19 in. Hg (1022 hPa)
Pressure tendency: 0.03 inches (1.1 hPa) higher than three hours ago
ob: KGED 281454Z AUTO 02010KT 10SM CLR 24/13 A3019 RMK AO2 SLP221 T02440128 51011
cycle: 15

Station Type Date Time Source
KGED TAF UTC NOAA

Error!

Example: see airport list